Time;durP1;ratioP1;P1;durP2;ratioP2;P2;SDS_P1;SDS_P2;PMS_P1;PMS_P2;Temp;Humidity;BMP_temperature;BMP_pressure;BME280_temperature;BME280_humidity;BME280_pressure;Samples;Min_cycle;Max_cycle;Signal;HPM_P1;HPM_P2
2023/05/12 00:02:08;;;;;;;2.72;2.50;;;;;;;14.78;68.50;96952.94;4907220;28;20273;-77
2023/05/12 00:04:35;;;;;;;4.47;2.75;;;;;;;14.78;68.25;96956.31;4927739;28;20322;-77
2023/05/12 00:07:00;;;;;;;3.53;2.80;;;;;;;14.84;68.29;96956.28;4910088;28;20225;-77
2023/05/12 00:09:26;;;;;;;3.45;2.40;;;;;;;14.80;68.42;96950.81;4894368;28;20194;-76
2023/05/12 00:11:51;;;;;;;3.33;2.65;;;;;;;14.77;68.29;96952.16;4926804;28;20254;-77
2023/05/12 00:14:16;;;;;;;2.65;2.45;;;;;;;14.80;68.52;96953.44;4908351;28;20602;-77
2023/05/12 00:16:42;;;;;;;4.00;2.88;;;;;;;14.79;68.24;96954.50;4925653;28;20277;-77
2023/05/12 00:19:07;;;;;;;4.07;2.88;;;;;;;14.78;68.35;96951.06;4909721;28;20196;-76
2023/05/12 00:21:33;;;;;;;2.97;2.65;;;;;;;14.77;68.31;96944.28;4926250;28;20329;-77
2023/05/12 00:23:58;;;;;;;3.85;2.55;;;;;;;14.77;68.39;96946.09;4909804;28;20605;-77
2023/05/12 00:26:24;;;;;;;4.05;2.85;;;;;;;14.77;68.32;96940.88;4909825;28;20189;-77
2023/05/12 00:28:49;;;;;;;2.83;2.38;;;;;;;14.75;68.53;96945.59;4925994;28;20246;-77
2023/05/12 00:31:15;;;;;;;3.05;2.45;;;;;;;14.78;68.50;96950.31;4906952;28;20250;-77
2023/05/12 00:33:40;;;;;;;3.30;2.70;;;;;;;14.75;68.47;96943.78;4891186;28;20214;-77
2023/05/12 00:36:07;;;;;;;3.63;2.92;;;;;;;14.74;68.48;96944.06;4904872;28;20193;-77
2023/05/12 00:38:33;;;;;;;3.38;2.63;;;;;;;14.72;68.23;96946.97;4923619;28;20651;-76
2023/05/12 00:40:59;;;;;;;4.75;2.97;;;;;;;14.72;68.08;96943.53;4922494;28;20939;-77
2023/05/12 00:43:24;;;;;;;3.10;2.50;;;;;;;14.68;68.20;96942.53;4889419;28;20249;-77
2023/05/12 00:45:50;;;;;;;3.83;2.85;;;;;;;14.68;68.59;96934.69;4885553;28;20213;-76
2023/05/12 00:48:15;;;;;;;4.53;3.40;;;;;;;14.70;68.48;96938.59;4888625;28;20730;-77
2023/05/12 00:50:41;;;;;;;2.65;2.38;;;;;;;14.68;68.92;96927.59;4917700;28;20193;-77
2023/05/12 00:53:06;;;;;;;2.92;2.47;;;;;;;14.71;68.64;96934.13;4888844;28;20203;-76
2023/05/12 00:55:32;;;;;;;3.28;2.42;;;;;;;14.69;68.99;96934.41;4906093;28;20304;-77
2023/05/12 00:57:58;;;;;;;2.97;2.67;;;;;;;14.70;68.87;96935.19;4880931;28;20276;-77
2023/05/12 01:00:26;;;;;;;2.65;2.35;;;;;;;14.76;69.06;96934.09;4890745;28;20652;-77
2023/05/12 01:02:52;;;;;;;3.28;2.95;;;;;;;14.67;68.66;96930.47;4918182;28;20186;-77
2023/05/12 01:05:17;;;;;;;4.28;3.08;;;;;;;14.71;69.13;96929.66;4906936;28;20183;-76
2023/05/12 01:07:43;;;;;;;4.30;3.83;;;;;;;14.75;68.67;96925.44;4908529;28;20400;-78
2023/05/12 01:10:19;;;;;;;4.90;3.30;;;;;;;14.88;68.50;96931.84;4906744;28;20288;-77
2023/05/12 01:12:44;;;;;;;6.25;4.55;;;;;;;14.76;68.72;96923.59;4891630;28;20236;-77
2023/05/12 01:15:11;;;;;;;5.40;3.38;;;;;;;14.74;69.03;96923.88;4907317;28;20214;-77
2023/05/12 01:17:37;;;;;;;5.63;3.58;;;;;;;14.76;69.01;96924.38;4909439;28;20274;-77
2023/05/12 01:20:05;;;;;;;4.10;3.20;;;;;;;14.72;69.00;96918.13;4927656;28;20350;-77
2023/05/12 01:22:31;;;;;;;6.13;3.60;;;;;;;14.77;68.94;96930.38;4896539;28;20288;-77
2023/05/12 01:24:58;;;;;;;6.07;4.40;;;;;;;14.79;68.89;96915.97;4931248;28;20246;-77
2023/05/12 01:27:25;;;;;;;6.95;3.72;;;;;;;14.74;68.79;96921.25;4899188;28;20222;-77
2023/05/12 01:29:51;;;;;;;5.47;4.07;;;;;;;14.74;68.96;96921.25;4913665;28;20382;-77
2023/05/12 01:32:19;;;;;;;5.45;4.13;;;;;;;14.74;68.47;96920.47;4895309;28;20210;-78
2023/05/12 01:34:45;;;;;;;5.88;4.32;;;;;;;14.71;68.45;96921.78;4895669;28;20125;-78
2023/05/12 01:37:11;;;;;;;5.78;4.75;;;;;;;14.74;68.97;96915.25;4919831;28;20275;-77
2023/05/12 01:39:37;;;;;;;5.53;4.18;;;;;;;14.75;68.95;96922.03;4897115;28;20198;-77
2023/05/12 01:42:04;;;;;;;5.03;3.95;;;;;;;14.74;69.04;96918.63;4909678;28;20665;-77
2023/05/12 01:44:29;;;;;;;5.25;3.75;;;;;;;14.74;69.35;96916.00;4931288;28;20221;-78
2023/05/12 01:46:55;;;;;;;5.65;4.47;;;;;;;14.71;69.45;96916.56;4898152;28;20359;-78
2023/05/12 01:49:20;;;;;;;7.25;5.18;;;;;;;14.72;69.12;96912.09;4898376;28;20222;-77
2023/05/12 01:51:46;;;;;;;7.47;5.20;;;;;;;14.72;69.74;96915.50;4930412;28;20424;-78
2023/05/12 01:54:11;;;;;;;6.00;4.25;;;;;;;14.69;69.12;96918.69;4898316;28;20598;-77
2023/05/12 01:56:37;;;;;;;5.90;4.50;;;;;;;14.71;69.13;96921.78;4913764;28;20249;-78
2023/05/12 01:59:02;;;;;;;6.13;4.80;;;;;;;14.79;68.41;96920.44;4894095;28;20316;-77
2023/05/12 02:01:27;;;;;;;6.30;4.53;;;;;;;14.77;68.65;96922.53;4904832;28;20379;-77
2023/05/12 02:03:54;;;;;;;5.70;4.45;;;;;;;14.77;69.02;96925.13;4891613;28;20264;-78
2023/05/12 02:06:21;;;;;;;6.47;4.80;;;;;;;14.79;69.14;96928.28;4913627;28;20302;-77
2023/05/12 02:08:46;;;;;;;6.22;4.63;;;;;;;14.82;69.09;96932.19;4881755;28;20441;-78
2023/05/12 02:11:12;;;;;;;10.63;5.82;;;;;;;14.73;69.32;96924.91;4912088;28;20233;-78
2023/05/12 02:13:37;;;;;;;6.97;5.22;;;;;;;14.75;69.49;96919.41;4914314;28;20268;-78
2023/05/12 02:16:03;;;;;;;6.68;5.47;;;;;;;14.72;68.82;96920.75;4912995;28;20179;-77
2023/05/12 02:18:28;;;;;;;6.32;5.13;;;;;;;14.76;69.45;96923.59;4910154;28;20261;-78
2023/05/12 02:20:54;;;;;;;6.32;5.50;;;;;;;14.82;69.55;96919.06;4902407;28;20349;-78
2023/05/12 02:23:19;;;;;;;6.15;5.28;;;;;;;14.77;68.80;96925.94;4897618;28;20457;-78
2023/05/12 02:25:45;;;;;;;7.60;5.78;;;;;;;14.81;68.77;96920.16;4912595;28;20280;-78
2023/05/12 02:28:10;;;;;;;7.90;5.60;;;;;;;14.79;68.97;96921.19;4910823;28;20272;-77
2023/05/12 02:30:36;;;;;;;5.85;5.00;;;;;;;14.84;68.57;96924.81;4896197;28;20740;-78
2023/05/12 02:33:04;;;;;;;8.68;6.28;;;;;;;14.79;68.99;96923.81;4913276;28;20244;-79
2023/05/12 02:35:30;;;;;;;7.07;5.57;;;;;;;14.77;69.35;96920.69;4913667;28;20355;-78
2023/05/12 02:37:55;;;;;;;8.93;6.60;;;;;;;14.74;69.37;96916.00;4930272;28;20107;-78
2023/05/12 02:40:20;;;;;;;8.25;5.68;;;;;;;14.81;69.60;96926.16;4896480;28;20407;-78
2023/05/12 02:42:46;;;;;;;6.95;5.47;;;;;;;14.82;68.75;96916.47;4895132;28;20183;-77
2023/05/12 02:45:11;;;;;;;7.38;5.03;;;;;;;14.83;68.74;96913.56;4895423;28;20170;-78
2023/05/12 02:47:37;;;;;;;6.47;5.05;;;;;;;14.86;69.26;96920.09;4897509;28;20424;-77
2023/05/12 02:50:03;;;;;;;10.73;6.82;;;;;;;14.76;69.15;96908.66;4897598;28;20412;-77
2023/05/12 02:52:28;;;;;;;7.47;5.43;;;;;;;14.80;69.35;96916.72;4897964;28;20315;-78
2023/05/12 02:54:55;;;;;;;6.38;4.88;;;;;;;14.81;69.23;96912.28;4929789;28;20317;-78
2023/05/12 02:57:20;;;;;;;6.70;5.22;;;;;;;14.78;69.54;96909.16;4892310;28;20206;-78
2023/05/12 02:59:46;;;;;;;8.95;5.55;;;;;;;14.75;69.48;96919.41;4925707;28;20122;-78
2023/05/12 03:02:11;;;;;;;9.23;5.60;;;;;;;14.73;69.26;96914.44;4888397;28;20459;-78
2023/05/12 03:04:37;;;;;;;8.40;5.47;;;;;;;14.74;69.41;96918.63;4887370;28;20268;-77
2023/05/12 03:07:02;;;;;;;6.53;5.53;;;;;;;14.74;69.56;96918.63;4926253;28;20234;-78
2023/05/12 03:09:27;;;;;;;8.27;5.85;;;;;;;14.71;69.08;96916.56;4911532;28;20096;-77
2023/05/12 03:11:53;;;;;;;6.13;4.68;;;;;;;14.73;69.47;96924.16;4897091;28;20301;-78
2023/05/12 03:14:18;;;;;;;8.23;5.63;;;;;;;14.72;69.58;96912.88;4928827;28;20432;-78
2023/05/12 03:16:44;;;;;;;8.32;5.45;;;;;;;14.72;69.08;96915.50;4928660;28;20466;-78
2023/05/12 03:19:09;;;;;;;8.73;6.32;;;;;;;14.75;69.59;96916.78;4912397;28;20107;-78
2023/05/12 03:21:34;;;;;;;9.20;6.15;;;;;;;14.73;69.43;96909.19;4912265;28;20271;-78
2023/05/12 03:24:00;;;;;;;9.13;6.22;;;;;;;14.73;69.68;96918.91;4927749;28;20217;-77
2023/05/12 03:26:25;;;;;;;9.40;6.72;;;;;;;14.72;69.53;96918.13;4911654;28;20297;-77
2023/05/12 03:28:51;;;;;;;10.25;6.60;;;;;;;14.69;69.68;96910.81;4912739;28;20205;-77
2023/05/12 03:31:16;;;;;;;10.93;7.35;;;;;;;14.68;69.65;96911.88;4911873;28;20292;-78
2023/05/12 03:33:42;;;;;;;10.27;6.45;;;;;;;14.65;69.45;96916.88;4912451;28;20622;-77
2023/05/12 03:36:07;;;;;;;8.98;5.95;;;;;;;14.70;69.88;96919.44;4928619;28;20344;-77
2023/05/12 03:38:33;;;;;;;9.30;6.47;;;;;;;14.68;69.62;96917.09;4927440;28;20124;-78
2023/05/12 03:41:05;;;;;;;9.57;6.50;;;;;;;14.79;69.82;96925.66;4910660;28;20279;-78
2023/05/12 03:43:31;;;;;;;9.27;6.47;;;;;;;14.71;69.22;96919.19;4903894;28;20330;-77
2023/05/12 03:45:58;;;;;;;9.73;6.78;;;;;;;14.71;69.40;96919.19;4886835;28;20233;-77
2023/05/12 03:48:23;;;;;;;10.27;7.00;;;;;;;14.71;69.60;96908.69;4922781;28;20205;-77
2023/05/12 03:50:49;;;;;;;10.35;7.25;;;;;;;14.73;69.49;96918.91;4922183;28;20111;-77
2023/05/12 03:53:14;;;;;;;11.77;8.23;;;;;;;14.75;70.07;96914.97;4909947;28;20561;-77
2023/05/12 03:55:40;;;;;;;232.00;154.45;;;;;;;14.71;69.96;96908.69;4852045;28;1541503;-77
2023/05/12 03:58:06;;;;;;;217.45;135.30;;;;;;;14.70;69.76;96906.34;4909583;28;20333;-77
2023/05/12 04:00:32;;;;;;;157.15;93.70;;;;;;;14.72;69.76;96905.03;4910096;28;20205;-77
2023/05/12 04:02:58;;;;;;;84.15;52.10;;;;;;;14.74;69.60;96908.16;4904709;28;20257;-77
2023/05/12 04:05:23;;;;;;;24.13;15.82;;;;;;;14.71;69.33;96907.91;4877629;28;20289;-78
2023/05/12 04:07:49;;;;;;;13.80;10.02;;;;;;;14.67;69.76;96905.06;4910200;28;20474;-77
2023/05/12 04:10:14;;;;;;;13.98;9.05;;;;;;;14.67;69.35;96906.91;4909045;28;20651;-77
2023/05/12 04:12:39;;;;;;;11.05;7.82;;;;;;;14.74;69.84;96916.00;4922492;28;20221;-77
2023/05/12 04:15:05;;;;;;;12.60;7.53;;;;;;;14.73;69.58;96914.44;4908357;28;20374;-77
2023/05/12 04:17:30;;;;;;;9.60;7.78;;;;;;;14.74;69.73;96913.38;4908508;28;20222;-78
2023/05/12 04:19:56;;;;;;;8.70;5.88;;;;;;;14.74;69.62;96923.88;4902123;28;20270;-77
2023/05/12 04:22:21;;;;;;;10.75;6.70;;;;;;;14.79;69.65;96915.97;4906251;28;20652;-78
2023/05/12 04:24:46;;;;;;;10.90;7.38;;;;;;;14.79;69.33;96910.72;4905825;28;20581;-77
2023/05/12 04:27:12;;;;;;;8.73;6.80;;;;;;;14.81;69.31;96910.44;4893978;28;20254;-78
2023/05/12 04:29:37;;;;;;;9.48;6.75;;;;;;;14.78;69.37;96909.16;4925400;28;20190;-77
2023/05/12 04:32:03;;;;;;;9.90;6.38;;;;;;;14.84;69.74;96915.13;4909721;28;20284;-77
2023/05/12 04:34:31;;;;;;;7.80;5.97;;;;;;;14.83;69.10;96923.28;4910395;28;20274;-77
2023/05/12 04:36:56;;;;;;;10.23;7.10;;;;;;;14.78;69.29;96905.75;4906575;28;20295;-77
2023/05/12 04:39:22;;;;;;;10.00;7.18;;;;;;;14.78;69.69;96922.25;4909791;28;20750;-77
2023/05/12 04:41:47;;;;;;;12.52;8.07;;;;;;;14.78;69.20;96921.47;4926239;28;20217;-77
2023/05/12 04:44:13;;;;;;;10.98;6.90;;;;;;;14.77;69.19;96922.53;4908081;28;20403;-77
2023/05/12 04:46:38;;;;;;;10.07;7.25;;;;;;;14.79;69.16;96923.03;4926656;28;20623;-77
2023/05/12 04:49:03;;;;;;;9.88;6.60;;;;;;;14.77;69.28;96920.69;4908742;28;20270;-77
2023/05/12 04:51:29;;;;;;;10.68;7.22;;;;;;;14.76;69.23;96924.38;4909482;28;20214;-78
2023/05/12 04:53:54;;;;;;;10.73;7.25;;;;;;;14.75;69.33;96925.44;4907736;28;20197;-78
2023/05/12 04:56:21;;;;;;;9.80;6.93;;;;;;;14.81;69.48;96925.41;4893021;28;20316;-77
2023/05/12 04:58:46;;;;;;;10.48;7.45;;;;;;;14.84;69.23;96930.06;4926171;28;20585;-78
2023/05/12 05:01:12;;;;;;;9.18;6.78;;;;;;;14.83;69.59;96926.66;4924795;28;20095;-78
2023/05/12 05:03:38;;;;;;;9.82;7.05;;;;;;;14.83;69.79;96933.75;4907734;28;20203;-78
2023/05/12 05:06:04;;;;;;;10.95;7.57;;;;;;;14.76;69.17;96931.47;4909219;28;20280;-79
2023/05/12 05:08:29;;;;;;;13.20;7.25;;;;;;;14.80;70.01;96937.69;4908743;28;20218;-78
2023/05/12 05:10:54;;;;;;;11.23;6.85;;;;;;;14.82;69.21;96935.56;4906899;28;20699;-77
2023/05/12 05:13:20;;;;;;;8.55;6.65;;;;;;;14.86;69.17;96939.22;4909739;28;20034;-78
2023/05/12 05:15:52;;;;;;;8.75;6.13;;;;;;;15.01;69.05;96940.91;4893777;28;20187;-78
2023/05/12 05:18:17;;;;;;;9.18;7.07;;;;;;;14.85;69.82;96937.66;4908596;28;20346;-78
2023/05/12 05:20:44;;;;;;;8.98;6.70;;;;;;;14.89;69.30;96943.91;4908873;28;20486;-78
2023/05/12 05:23:12;;;;;;;9.00;6.07;;;;;;;15.01;69.45;96940.13;4926799;28;20210;-77
2023/05/12 05:25:38;;;;;;;8.25;6.15;;;;;;;14.97;69.51;96945.91;4925361;28;20460;-77
2023/05/12 05:28:03;;;;;;;7.30;5.45;;;;;;;15.00;69.56;96944.59;4907044;28;20616;-78
2023/05/12 05:30:29;;;;;;;6.60;5.32;;;;;;;15.04;69.04;96942.19;4908380;28;20268;-77
2023/05/12 05:32:54;;;;;;;7.90;5.65;;;;;;;15.05;68.90;96941.13;4893352;28;20222;-77
2023/05/12 05:35:19;;;;;;;8.05;5.95;;;;;;;15.00;68.69;96952.44;4924600;28;20284;-77
2023/05/12 05:37:46;;;;;;;8.38;5.32;;;;;;;15.08;68.51;96953.66;4924932;28;20441;-78
2023/05/12 05:40:11;;;;;;;8.23;6.07;;;;;;;15.05;69.13;96957.66;4908385;28;20702;-77
2023/05/12 05:42:36;;;;;;;6.25;4.95;;;;;;;15.05;69.15;96955.03;4924294;28;20256;-77
2023/05/12 05:45:02;;;;;;;5.85;4.25;;;;;;;15.06;68.82;96953.97;4890012;28;20273;-78
2023/05/12 05:47:27;;;;;;;6.95;5.35;;;;;;;15.10;69.06;96957.59;4905175;28;20356;-77
2023/05/12 05:49:53;;;;;;;5.45;4.25;;;;;;;15.12;68.71;96960.72;4872180;28;20179;-78
2023/05/12 05:52:19;;;;;;;6.47;5.03;;;;;;;15.10;68.14;96954.97;4908057;28;20191;-78
2023/05/12 05:54:44;;;;;;;7.95;5.43;;;;;;;15.12;69.25;96960.72;4924460;28;20229;-77
2023/05/12 05:57:10;;;;;;;6.78;5.72;;;;;;;15.15;68.59;96962.78;4924473;28;20347;-78
2023/05/12 05:59:35;;;;;;;6.30;5.35;;;;;;;15.11;68.88;96964.41;4909163;28;20656;-78
2023/05/12 06:02:01;;;;;;;9.98;6.30;;;;;;;15.05;69.10;96968.13;4909991;28;20205;-78
2023/05/12 06:04:26;;;;;;;7.03;5.72;;;;;;;15.06;69.53;96967.09;4887989;28;20171;-78
2023/05/12 06:06:52;;;;;;;6.93;5.15;;;;;;;15.09;68.83;96973.59;4912646;28;20297;-78
2023/05/12 06:09:17;;;;;;;6.70;5.13;;;;;;;15.05;68.72;96970.75;4905938;28;20198;-78
2023/05/12 06:11:43;;;;;;;6.32;4.75;;;;;;;15.07;69.15;96976.50;4929090;28;20107;-78
2023/05/12 06:14:08;;;;;;;6.22;4.35;;;;;;;15.19;68.38;96977.97;4928808;28;20266;-78
2023/05/12 06:16:33;;;;;;;5.65;4.25;;;;;;;15.20;68.75;96977.69;4929363;28;20206;-78
2023/05/12 06:18:59;;;;;;;6.47;4.80;;;;;;;15.22;68.80;96993.94;4910852;28;20252;-78
2023/05/12 06:21:24;;;;;;;5.38;4.40;;;;;;;15.29;68.46;96994.38;4912810;28;20678;-78
2023/05/12 06:23:50;;;;;;;6.00;4.10;;;;;;;15.31;67.97;96991.47;4913256;28;20205;-78
2023/05/12 06:26:15;;;;;;;5.05;4.40;;;;;;;15.34;68.39;96988.28;4912973;28;20267;-78
2023/05/12 06:28:41;;;;;;;4.15;3.35;;;;;;;15.45;68.21;96991.56;4880582;28;20258;-78
2023/05/12 06:31:10;;;;;;;3.78;3.38;;;;;;;15.51;68.00;97000.97;4896690;28;20454;-78
2023/05/12 06:33:35;;;;;;;4.60;3.65;;;;;;;15.58;68.12;96998.00;4928948;28;20273;-78
2023/05/12 06:36:00;;;;;;;6.68;4.20;;;;;;;15.58;67.83;96990.13;4908138;28;20242;-78
2023/05/12 06:38:26;;;;;;;4.90;4.30;;;;;;;15.64;67.59;96999.50;4913156;28;20712;-78
2023/05/12 06:40:51;;;;;;;4.57;3.72;;;;;;;15.67;68.05;96994.47;4896664;28;20292;-78
2023/05/12 06:43:17;;;;;;;4.53;3.70;;;;;;;15.61;67.83;96992.16;4896194;28;20171;-78
2023/05/12 06:45:43;;;;;;;5.70;4.88;;;;;;;15.64;67.23;96994.25;4909446;28;20218;-78
2023/05/12 06:48:09;;;;;;;4.72;4.22;;;;;;;15.72;67.58;96997.00;4894240;28;20193;-78
2023/05/12 06:50:34;;;;;;;4.68;4.00;;;;;;;15.74;67.74;96994.88;4912563;28;20715;-78
2023/05/12 06:52:59;;;;;;;4.20;3.25;;;;;;;15.79;67.00;96996.72;4903538;28;20624;-79
2023/05/12 06:55:25;;;;;;;3.78;3.40;;;;;;;15.78;67.08;96997.78;4895434;28;20576;-78
2023/05/12 06:57:54;;;;;;;5.18;4.07;;;;;;;15.71;66.01;97005.97;4895925;28;20327;-78
2023/05/12 07:00:21;;;;;;;4.55;3.40;;;;;;;15.69;67.15;97002.06;4911793;28;20246;-78
2023/05/12 07:02:47;;;;;;;4.07;3.67;;;;;;;15.74;67.29;96994.13;4927315;28;20233;-78
2023/05/12 07:05:12;;;;;;;6.35;5.00;;;;;;;15.63;67.12;96995.31;4911824;28;20285;-78
2023/05/12 07:07:37;;;;;;;4.82;4.30;;;;;;;15.65;66.76;97001.84;4911442;28;20164;-78
2023/05/12 07:10:03;;;;;;;5.68;4.35;;;;;;;15.62;67.60;97002.38;4896014;28;20224;-78
2023/05/12 07:12:28;;;;;;;5.47;4.32;;;;;;;15.61;67.15;97000.84;4912200;28;20237;-78
2023/05/12 07:14:54;;;;;;;4.38;3.85;;;;;;;15.57;67.42;96999.81;4910125;28;20281;-78
2023/05/12 07:17:20;;;;;;;4.97;4.47;;;;;;;15.56;67.17;97006.16;4911534;28;20639;-78
2023/05/12 07:19:45;;;;;;;4.43;3.97;;;;;;;15.64;67.20;97000.25;4912323;28;20723;-78
2023/05/12 07:22:11;;;;;;;4.90;4.10;;;;;;;15.67;67.03;96996.31;4911505;28;20163;-78
2023/05/12 07:24:37;;;;;;;4.63;3.83;;;;;;;15.76;66.99;97007.00;4908643;28;20784;-78
2023/05/12 07:27:03;;;;;;;5.93;4.05;;;;;;;15.89;67.63;97007.06;4926822;28;20292;-78
2023/05/12 07:29:28;;;;;;;7.07;4.88;;;;;;;16.05;67.28;97005.03;4911682;28;20194;-79
2023/05/12 07:31:54;;;;;;;4.13;3.55;;;;;;;16.15;67.68;97009.38;4910403;28;20216;-78
2023/05/12 07:34:20;;;;;;;4.82;3.75;;;;;;;16.26;66.27;97016.03;4911397;28;20219;-79
2023/05/12 07:36:45;;;;;;;4.18;3.47;;;;;;;16.16;65.75;97004.88;4926620;28;20179;-78
2023/05/12 07:39:12;;;;;;;4.15;3.70;;;;;;;16.28;66.15;97011.28;4927128;28;20674;-78
2023/05/12 07:41:38;;;;;;;4.93;4.22;;;;;;;16.31;64.97;97006.50;4927398;28;20652;-78
2023/05/12 07:44:03;;;;;;;4.70;3.92;;;;;;;16.29;65.23;97012.81;4927427;28;20197;-79
2023/05/12 07:46:29;;;;;;;6.78;4.50;;;;;;;16.24;65.24;97010.28;4893463;28;20172;-79
2023/05/12 07:48:54;;;;;;;6.07;4.88;;;;;;;16.29;65.74;97020.72;4911570;28;20664;-78
2023/05/12 07:51:20;;;;;;;5.70;4.43;;;;;;;16.28;65.78;97013.91;4910960;28;20273;-78
2023/05/12 07:53:45;;;;;;;6.88;5.25;;;;;;;16.02;65.31;97004.81;4911061;28;20209;-79
2023/05/12 07:56:10;;;;;;;12.20;7.47;;;;;;;16.08;65.63;97014.19;4910839;28;20640;-78
2023/05/12 07:58:36;;;;;;;9.43;5.90;;;;;;;16.14;66.14;97017.53;4912430;28;20300;-79
2023/05/12 08:01:04;;;;;;;5.88;4.72;;;;;;;16.19;66.69;97018.22;4909831;28;20287;-79
2023/05/12 08:03:30;;;;;;;6.70;5.10;;;;;;;16.20;66.27;97011.91;4924016;28;20265;-80
2023/05/12 08:05:56;;;;;;;6.22;4.75;;;;;;;16.15;65.90;97016.47;4909811;28;20190;-79
2023/05/12 08:08:21;;;;;;;6.55;5.30;;;;;;;16.16;66.38;97021.44;4894060;28;20664;-79
2023/05/12 08:10:46;;;;;;;8.00;5.68;;;;;;;16.27;65.63;97016.81;4926357;28;20277;-79
2023/05/12 08:13:12;;;;;;;7.90;5.95;;;;;;;16.35;66.17;97018.81;4910203;28;20198;-79
2023/05/12 08:15:37;;;;;;;7.53;5.65;;;;;;;16.34;65.64;97021.72;4910739;28;20205;-79
2023/05/12 08:18:03;;;;;;;7.00;4.88;;;;;;;16.36;66.36;97027.47;4910237;28;20274;-79
2023/05/12 08:20:28;;;;;;;7.30;5.40;;;;;;;16.34;65.92;97026.97;4910523;28;20209;-79
2023/05/12 08:22:53;;;;;;;6.47;4.90;;;;;;;16.03;66.23;97024.75;4927025;28;20206;-79
2023/05/12 08:25:20;;;;;;;6.55;4.90;;;;;;;16.17;65.76;97025.63;4925957;28;20692;-79
2023/05/12 08:27:46;;;;;;;6.40;5.15;;;;;;;16.05;64.98;97020.00;4924907;28;20213;-79
2023/05/12 08:30:12;;;;;;;7.97;5.75;;;;;;;16.15;66.15;97025.13;4925308;28;20168;-79
2023/05/12 08:32:37;;;;;;;5.65;5.05;;;;;;;16.03;65.56;97020.28;4894077;28;20197;-79
2023/05/12 08:35:03;;;;;;;6.18;4.82;;;;;;;16.17;65.50;97024.84;4909942;28;20279;-78
2023/05/12 08:37:28;;;;;;;6.47;5.78;;;;;;;16.26;65.91;97026.56;4894177;28;20640;-80
2023/05/12 08:39:54;;;;;;;7.03;5.60;;;;;;;16.41;65.58;97030.00;4910665;28;20175;-79
2023/05/12 08:42:30;;;;;;;7.72;5.43;;;;;;;16.62;64.83;97031.28;4910239;28;20288;-80
2023/05/12 08:44:58;;;;;;;7.30;5.35;;;;;;;16.57;64.69;97031.38;4891681;28;20229;-79
2023/05/12 08:47:24;;;;;;;5.57;4.78;;;;;;;16.47;64.73;97031.50;4910166;28;20137;-79
2023/05/12 08:49:58;;;;;;;5.75;4.75;;;;;;;16.53;64.43;97022.47;4926275;28;20266;-81
2023/05/12 08:52:24;;;;;;;7.57;5.70;;;;;;;16.42;65.47;97027.09;4926048;28;20164;-79
2023/05/12 08:54:50;;;;;;;7.00;5.75;;;;;;;16.44;65.15;97027.59;4926332;28;20482;-79
2023/05/12 08:57:15;;;;;;;6.90;5.30;;;;;;;16.60;65.38;97025.50;4926206;28;20237;-79
2023/05/12 08:59:42;;;;;;;6.00;4.82;;;;;;;16.86;64.99;97030.38;4909891;28;20627;-79
2023/05/12 09:02:08;;;;;;;4.78;4.20;;;;;;;16.90;64.61;97023.50;4891667;28;20218;-80
2023/05/12 09:04:35;;;;;;;6.00;4.72;;;;;;;16.95;64.49;97031.31;4893396;28;20144;-79
2023/05/12 09:07:02;;;;;;;6.47;4.97;;;;;;;17.01;64.30;97027.50;4925980;28;20614;-80
2023/05/12 09:09:28;;;;;;;5.28;4.55;;;;;;;16.96;64.57;97029.44;4925925;28;20206;-80
2023/05/12 09:11:55;;;;;;;5.75;4.35;;;;;;;16.94;63.89;97032.38;4906611;28;20194;-79
2023/05/12 09:14:24;;;;;;;5.35;4.35;;;;;;;16.67;64.54;97028.56;4877655;28;20204;-79
2023/05/12 09:16:55;;;;;;;4.80;4.30;;;;;;;16.58;64.05;97030.28;4909658;28;20261;-80
2023/05/12 09:19:20;;;;;;;6.18;4.32;;;;;;;16.54;64.70;97025.91;4893732;28;20292;-80
2023/05/12 09:21:46;;;;;;;5.35;4.80;;;;;;;16.60;64.52;97024.75;4909970;28;20566;-78
2023/05/12 09:24:11;;;;;;;6.53;4.97;;;;;;;16.55;63.97;97038.72;4909520;28;20244;-80
2023/05/12 09:26:51;;;;;;;7.80;5.10;;;;;;;16.60;65.20;97033.41;4924073;28;20259;-79
2023/05/12 09:29:17;;;;;;;6.00;4.70;;;;;;;16.14;66.26;97039.31;4900861;28;20210;-78
2023/05/12 09:31:50;;;;;;;5.85;5.07;;;;;;;16.51;66.41;97047.50;4890691;28;20198;-80
2023/05/12 09:34:16;;;;;;;7.50;5.35;;;;;;;16.35;65.96;97037.19;4876486;28;20280;-79
2023/05/12 09:36:41;;;;;;;6.57;5.07;;;;;;;16.39;66.25;97038.19;4925853;28;20807;-80
2023/05/12 09:39:08;;;;;;;6.65;4.60;;;;;;;16.41;66.22;97033.41;4925718;28;20271;-79
2023/05/12 09:41:41;;;;;;;6.20;5.43;;;;;;;16.60;66.63;97028.13;4896410;28;20163;-79
2023/05/12 09:44:08;;;;;;;8.13;5.45;;;;;;;16.62;66.21;97028.66;4913217;28;20691;-79
2023/05/12 09:46:35;;;;;;;6.43;5.07;;;;;;;16.64;66.36;97031.78;4929115;28;20163;-79
2023/05/12 09:49:02;;;;;;;7.90;5.75;;;;;;;16.72;66.26;97026.94;4913069;28;20730;-79
2023/05/12 09:51:29;;;;;;;8.13;5.90;;;;;;;16.54;65.51;97024.03;4929564;28;20615;-80
2023/05/12 09:53:54;;;;;;;6.55;5.35;;;;;;;16.72;65.85;97029.56;4924845;28;20630;-80
2023/05/12 09:56:20;;;;;;;7.72;5.18;;;;;;;16.77;66.62;97024.97;4924479;28;20194;-80
2023/05/12 09:58:47;;;;;;;6.80;5.35;;;;;;;16.90;65.37;97034.03;4913907;28;20243;-79
2023/05/12 10:01:14;;;;;;;6.78;5.13;;;;;;;16.97;64.88;97034.44;4913059;28;20265;-80
2023/05/12 10:03:41;;;;;;;5.53;5.03;;;;;;;16.89;64.37;97036.94;4909375;28;20830;-79
2023/05/12 10:06:11;;;;;;;5.70;5.03;;;;;;;16.82;64.46;97037.28;4863238;28;20199;-82
2023/05/12 10:08:42;;;;;;;6.13;5.18;;;;;;;16.63;65.18;97035.47;4913494;28;20249;-79
2023/05/12 10:11:08;;;;;;;5.28;4.78;;;;;;;16.55;64.57;97030.84;4913195;28;20251;-79
2023/05/12 10:13:33;;;;;;;5.78;4.57;;;;;;;16.52;63.67;97031.44;4912182;28;20336;-80
2023/05/12 10:15:59;;;;;;;5.90;4.80;;;;;;;16.73;64.54;97031.91;4880334;28;20276;-78
2023/05/12 10:18:25;;;;;;;5.05;4.55;;;;;;;16.88;64.28;97028.28;4912871;28;20344;-80
2023/05/12 10:20:52;;;;;;;5.05;4.55;;;;;;;17.02;63.84;97036.19;4912991;28;20198;-80
2023/05/12 10:23:40;;;;;;;4.32;3.92;;;;;;;17.09;63.14;97027.94;4893976;28;20201;-81
2023/05/12 10:26:06;;;;;;;5.82;4.75;;;;;;;17.25;63.52;97033.69;4928747;28;20197;-81
2023/05/12 10:28:31;;;;;;;4.57;4.10;;;;;;;17.16;62.96;97038.84;4928844;28;20210;-79
2023/05/12 10:30:57;;;;;;;5.28;4.30;;;;;;;17.22;62.77;97040.31;4909288;28;20365;-80
2023/05/12 10:33:23;;;;;;;4.78;4.28;;;;;;;17.23;62.28;97034.75;4896449;28;20306;-80
2023/05/12 10:35:50;;;;;;;4.97;4.47;;;;;;;17.17;62.65;97043.03;4928876;28;20304;-80
2023/05/12 10:38:16;;;;;;;4.63;4.20;;;;;;;16.81;62.79;97031.25;4912387;28;20332;-81
2023/05/12 10:41:00;;;;;;;4.38;3.80;;;;;;;16.99;63.35;97034.91;4907521;28;20357;-80
2023/05/12 10:43:37;;;;;;;4.95;4.05;;;;;;;17.26;62.41;97020.25;4909456;28;20219;-80
2023/05/12 10:46:12;;;;;;;4.50;3.47;;;;;;;17.34;61.26;97032.75;4892808;28;20308;-81
2023/05/12 10:48:50;;;;;;;4.28;3.88;;;;;;;17.52;60.92;97032.94;4896317;28;20214;-80
2023/05/12 10:51:19;;;;;;;5.43;4.07;;;;;;;17.26;61.69;97041.31;4912244;28;20167;-79
2023/05/12 10:53:45;;;;;;;4.85;4.18;;;;;;;17.21;61.60;97036.13;4912778;28;20198;-80
2023/05/12 10:56:10;;;;;;;4.00;3.70;;;;;;;17.29;60.81;97039.94;4927955;28;20194;-80
2023/05/12 10:58:36;;;;;;;3.83;3.53;;;;;;;17.07;60.48;97028.22;4910937;28;20386;-81
2023/05/12 11:01:05;;;;;;;4.57;3.75;;;;;;;17.02;60.60;97029.06;4879712;28;20193;-80
2023/05/12 11:03:32;;;;;;;4.25;3.85;;;;;;;17.00;60.98;97033.84;4911478;28;20190;-79
2023/05/12 11:06:04;;;;;;;4.60;3.90;;;;;;;17.10;61.31;97032.09;4912847;28;20190;-81
2023/05/12 11:08:33;;;;;;;4.53;4.13;;;;;;;16.90;61.61;97036.66;4911623;28;20330;-80
2023/05/12 11:11:00;;;;;;;4.60;4.07;;;;;;;16.67;61.81;97041.72;4912611;28;20258;-81
2023/05/12 11:13:27;;;;;;;5.30;4.32;;;;;;;16.50;61.94;97035.41;4927869;28;20439;-82
2023/05/12 11:15:53;;;;;;;4.68;4.28;;;;;;;16.58;62.02;97040.78;4926394;28;20206;-80
2023/05/12 11:18:20;;;;;;;4.90;4.40;;;;;;;16.79;61.81;97037.84;4894462;28;20759;-81
2023/05/12 11:20:45;;;;;;;4.22;3.83;;;;;;;16.85;62.84;97034.09;4911310;28;20632;-82
2023/05/12 11:23:11;;;;;;;5.68;4.10;;;;;;;16.84;62.46;97035.16;4909454;28;20194;-80
2023/05/12 11:25:36;;;;;;;4.32;3.70;;;;;;;17.04;62.18;97040.09;4911891;28;20285;-80
2023/05/12 11:28:02;;;;;;;4.90;3.83;;;;;;;17.04;62.84;97039.31;4895559;28;20207;-80